Dunmore, Canada
Current Conditions -  °F | °C
As of 8:00 PM on Monday 20 Oct 2014 (Local Time) from CYXH Reporting Station
Few Clouds Few Clouds  
Wind Chill: 59°   Ceiling: Unl
Heat Index: 59°   Visibility: 15mi
Dew Point: 36°   Wind: 8mph
Humidity: 42%   Direction: 220°SW
Pressure: 29.64"   Gusts: NA
Location:  49.97°N, 110.58°W
Report Text: CYXH 210200Z 22007KT 15SM FEW280 15/02 A2964 RMK CI1 SLP043 DENSITY ALT 3100FT
Loading
Personal Weather Stations






























Interactive Weather Map
Tropical Storm Tracking
New forecast layout! Learn more

10-Day Weather Forecast

Advertisements
Track Severe Weather on mobile